Time;durP1;ratioP1;P1;durP2;ratioP2;P2;SDS_P1;SDS_P2;PMS_P1;PMS_P2;Temp;Humidity;BMP_temperature;BMP_pressure;BME280_temperature;BME280_humidity;BME280_pressure;Samples;Min_cycle;Max_cycle;Signal;HPM_P1;HPM_P2
2022/06/09 00:01:25;;;;;;;1.77;0.90;;;9.50;99.90;;;;;;5089604;28;20907;-83
2022/06/09 00:04:08;;;;;;;3.33;1.10;;;9.70;99.90;;;;;;5090208;28;20397;-85
2022/06/09 00:06:46;;;;;;;2.07;0.90;;;9.90;99.90;;;;;;5090190;28;20364;-85
2022/06/09 00:09:15;;;;;;;2.38;0.90;;;10.20;99.90;;;;;;5090153;28;20352;-83
2022/06/09 00:11:46;;;;;;;1.40;0.80;;;10.50;99.10;;;;;;5089016;28;20393;-83
2022/06/09 00:14:13;;;;;;;1.75;0.90;;;10.40;97.70;;;;;;5089535;28;20844;-88
2022/06/09 00:16:41;;;;;;;2.05;0.70;;;10.40;96.80;;;;;;5071264;28;20467;-86
2022/06/09 00:19:10;;;;;;;1.77;0.80;;;10.40;97.60;;;;;;5089387;28;20418;-88
2022/06/09 00:21:37;;;;;;;2.00;0.70;;;10.40;97.30;;;;;;5089315;28;20437;-88
2022/06/09 00:24:06;;;;;;;2.03;0.88;;;10.70;95.70;;;;;;5089410;28;20365;-84
2022/06/09 00:26:34;;;;;;;1.80;0.70;;;10.80;95.50;;;;;;5089382;28;20369;-88
2022/06/09 00:29:01;;;;;;;2.92;0.70;;;10.90;93.10;;;;;;5089501;28;20417;-83
2022/06/09 00:31:28;;;;;;;1.23;0.73;;;11.00;94.00;;;;;;5089238;28;20390;-87
2022/06/09 00:33:55;;;;;;;2.92;0.52;;;11.40;92.70;;;;;;5089305;28;20383;-88
2022/06/09 00:36:22;;;;;;;1.98;0.60;;;11.60;90.90;;;;;;5088436;28;20389;-89
2022/06/09 00:38:50;;;;;;;1.52;0.60;;;11.70;91.00;;;;;;5088189;28;20376;-83
2022/06/09 00:41:17;;;;;;;1.20;0.57;;;11.90;90.20;;;;;;5088668;28;20384;-84
2022/06/09 00:43:45;;;;;;;1.65;0.60;;;12.00;90.50;;;;;;5088292;28;20400;-89
2022/06/09 00:46:18;;;;;;;2.00;0.70;;;12.20;90.30;;;;;;5088398;28;20388;-90
2022/06/09 00:49:15;;;;;;;0.80;0.63;;;12.30;87.00;;;;;;5088679;28;20438;-83
2022/06/09 00:51:45;;;;;;;1.05;0.90;;;12.40;86.30;;;;;;5069909;28;20433;-84
2022/06/09 00:54:46;;;;;;;1.57;0.90;;;12.50;84.80;;;;;;5070121;28;20506;-83
2022/06/09 00:57:18;;;;;;;2.67;1.00;;;12.60;86.30;;;;;;5084375;28;20380;-82
2022/06/09 00:59:51;;;;;;;5.63;1.10;;;12.60;83.90;;;;;;5088077;28;20369;-90
2022/06/09 01:02:20;;;;;;;1.30;0.70;;;12.60;84.60;;;;;;5087886;28;20369;-83
2022/06/09 01:04:50;;;;;;;1.20;0.70;;;12.70;82.00;;;;;;5088000;28;20455;-88
2022/06/09 01:07:23;;;;;;;4.18;0.85;;;12.60;82.30;;;;;;5088127;28;20373;-85
2022/06/09 01:09:50;;;;;;;1.40;0.80;;;12.60;84.00;;;;;;5088222;28;20353;-84
2022/06/09 01:12:26;;;;;;;1.20;0.90;;;12.70;83.30;;;;;;5087918;28;20425;-84
2022/06/09 01:14:59;;;;;;;1.42;0.80;;;12.80;81.10;;;;;;5088296;28;20483;-90
2022/06/09 01:17:41;;;;;;;1.10;0.75;;;12.80;81.50;;;;;;5087985;28;20428;-83
2022/06/09 01:20:33;;;;;;;1.15;0.50;;;13.10;81.90;;;;;;5088665;28;20871;-84
2022/06/09 01:23:40;;;;;;;0.80;0.40;;;13.30;76.50;;;;;;5087369;28;20361;-84
2022/06/09 01:26:35;;;;;;;0.85;0.40;;;13.30;76.40;;;;;;5087637;28;20365;-89
2022/06/09 01:29:17;;;;;;;0.50;0.50;;;13.50;77.10;;;;;;5087514;28;20518;-87
2022/06/09 01:31:59;;;;;;;0.52;0.50;;;13.60;76.60;;;;;;5088276;28;20419;-86
2022/06/09 01:34:46;;;;;;;0.84;0.50;;;13.70;76.90;;;;;;5033453;28;3395917;-84
2022/06/09 01:37:28;;;;;;;2.30;0.63;;;13.70;75.30;;;;;;5088728;28;20367;-84
2022/06/09 01:40:01;;;;;;;1.23;0.30;;;13.70;75.80;;;;;;5088371;28;20778;-85
2022/06/09 01:42:32;;;;;;;3.60;1.63;;;13.70;73.20;;;;;;5088387;28;20727;-84
2022/06/09 01:45:10;;;;;;;2.67;1.10;;;13.80;72.50;;;;;;5088243;28;20390;-84
2022/06/09 01:47:43;;;;;;;1.00;0.30;;;13.90;74.20;;;;;;5088479;28;20372;-88
2022/06/09 01:50:17;;;;;;;0.80;0.40;;;14.10;72.80;;;;;;5088444;28;20396;-89
2022/06/09 01:52:46;;;;;;;0.80;0.40;;;14.00;71.50;;;;;;5088592;28;20434;-89
2022/06/09 01:55:16;;;;;;;0.30;0.30;;;14.00;73.10;;;;;;5088109;28;20404;-83
2022/06/09 01:57:46;;;;;;;1.42;0.30;;;13.90;72.10;;;;;;5088613;28;20369;-91
2022/06/09 02:00:16;;;;;;;0.80;0.40;;;14.10;69.80;;;;;;5088611;28;20368;-83
2022/06/09 02:02:52;;;;;;;0.32;0.30;;;14.00;70.90;;;;;;5088263;28;20357;-84
2022/06/09 02:05:24;;;;;;;1.00;0.30;;;14.10;72.20;;;;;;5088181;28;20388;-83
2022/06/09 02:07:55;;;;;;;0.30;0.30;;;14.20;70.70;;;;;;5088596;28;20361;-89
2022/06/09 02:10:29;;;;;;;2.28;0.45;;;14.20;70.10;;;;;;5088085;28;20855;-85
2022/06/09 02:13:00;;;;;;;0.52;0.40;;;14.30;70.40;;;;;;5088418;28;20824;-91
2022/06/09 02:15:39;;;;;;;0.85;0.40;;;14.30;69.70;;;;;;5088671;28;20395;-89
2022/06/09 02:18:13;;;;;;;0.57;0.40;;;14.40;70.00;;;;;;5088362;28;20443;-92
2022/06/09 02:20:44;;;;;;;1.02;0.30;;;14.50;68.30;;;;;;5088242;28;20388;-84
2022/06/09 02:23:14;;;;;;;0.20;0.20;;;14.40;69.50;;;;;;5088476;28;20833;-89
2022/06/09 02:25:41;;;;;;;1.00;0.30;;;14.50;68.00;;;;;;5087871;28;20365;-91
2022/06/09 02:28:09;;;;;;;1.00;0.30;;;14.60;67.70;;;;;;5088125;28;20391;-86
2022/06/09 02:30:37;;;;;;;0.50;0.40;;;14.70;67.90;;;;;;5087943;28;20368;-89
2022/06/09 02:33:05;;;;;;;0.43;0.40;;;14.60;66.90;;;;;;5088492;28;20716;-84
2022/06/09 02:35:32;;;;;;;0.30;0.20;;;14.80;67.20;;;;;;5089390;28;20408;-86
2022/06/09 02:38:00;;;;;;;0.82;0.35;;;14.80;66.00;;;;;;5091526;28;20372;-86
2022/06/09 02:40:29;;;;;;;0.80;0.17;;;14.90;66.60;;;;;;5073273;28;20411;-84
2022/06/09 02:42:57;;;;;;;0.30;0.30;;;14.90;66.20;;;;;;5091402;28;20377;-85
2022/06/09 02:45:24;;;;;;;1.17;0.22;;;15.00;65.80;;;;;;5091423;28;20369;-90
2022/06/09 02:47:51;;;;;;;0.45;0.30;;;14.90;65.20;;;;;;5091418;28;20368;-83
2022/06/09 02:50:19;;;;;;;0.40;0.30;;;14.90;66.60;;;;;;5091287;28;20373;-88
2022/06/09 02:52:46;;;;;;;0.30;0.30;;;15.00;66.30;;;;;;5091557;28;20449;-85
2022/06/09 02:55:14;;;;;;;0.30;0.20;;;15.10;66.10;;;;;;5091286;28;20406;-90
2022/06/09 02:57:41;;;;;;;0.52;0.30;;;15.20;64.80;;;;;;5091148;28;20365;-89
2022/06/09 03:00:14;;;;;;;0.60;0.30;;;15.20;64.80;;;;;;5091407;28;20380;-88
2022/06/09 03:02:43;;;;;;;1.30;0.30;;;15.20;64.00;;;;;;5090938;28;20444;-83
2022/06/09 03:05:11;;;;;;;0.30;0.30;;;15.40;65.00;;;;;;5090992;28;20771;-89
2022/06/09 03:07:38;;;;;;;0.80;0.20;;;15.40;64.20;;;;;;5091077;28;20399;-82
2022/06/09 03:10:06;;;;;;;0.40;0.30;;;15.50;64.10;;;;;;5090887;28;20860;-82
2022/06/09 03:12:33;;;;;;;0.67;0.30;;;15.50;64.40;;;;;;5091207;28;20740;-90
2022/06/09 03:15:00;;;;;;;0.70;0.20;;;15.50;63.70;;;;;;5072654;28;20408;-86
2022/06/09 03:17:28;;;;;;;1.55;0.30;;;15.50;63.20;;;;;;5090880;28;20380;-86
2022/06/09 03:19:55;;;;;;;1.90;0.38;;;15.70;64.00;;;;;;5090667;28;20389;-83
2022/06/09 03:22:22;;;;;;;5.85;0.40;;;15.60;62.40;;;;;;5090696;28;20701;-84
2022/06/09 03:24:49;;;;;;;2.90;0.32;;;15.50;63.50;;;;;;5090683;28;20403;-90
2022/06/09 03:27:16;;;;;;;0.38;0.20;;;15.40;62.70;;;;;;5090608;28;20430;-81
2022/06/09 03:29:43;;;;;;;2.47;0.30;;;15.40;63.70;;;;;;5090394;28;20373;-90
2022/06/09 03:32:11;;;;;;;1.50;0.20;;;15.50;62.30;;;;;;5090518;28;20499;-83
2022/06/09 03:34:38;;;;;;;0.82;0.30;;;15.40;62.90;;;;;;5090234;28;20441;-91
2022/06/09 03:37:05;;;;;;;1.08;0.40;;;15.30;62.60;;;;;;5090684;28;20373;-91
2022/06/09 03:39:32;;;;;;;0.90;0.30;;;15.40;63.10;;;;;;5090772;28;20755;-83
2022/06/09 03:41:59;;;;;;;0.90;0.20;;;15.50;61.80;;;;;;5090320;28;20432;-83
2022/06/09 03:44:26;;;;;;;0.45;0.20;;;15.40;61.60;;;;;;5090215;28;20422;-82
2022/06/09 03:46:54;;;;;;;1.27;0.30;;;15.30;61.30;;;;;;5089211;28;20456;-89
2022/06/09 03:49:21;;;;;;;1.58;0.40;;;15.40;63.40;;;;;;5090507;28;20377;-84
2022/06/09 03:51:49;;;;;;;1.30;0.30;;;15.40;63.10;;;;;;5090190;28;20376;-83
2022/06/09 03:54:16;;;;;;;0.10;0.10;;;15.30;61.70;;;;;;5089955;28;20765;-92
2022/06/09 03:56:43;;;;;;;0.70;0.20;;;15.40;63.10;;;;;;5090029;28;20388;-90
2022/06/09 03:59:11;;;;;;;0.55;0.25;;;15.40;61.60;;;;;;5089932;28;20404;-86
2022/06/09 04:01:39;;;;;;;1.35;0.28;;;15.40;61.00;;;;;;5090112;28;20915;-84
2022/06/09 04:04:07;;;;;;;0.30;0.20;;;15.30;62.10;;;;;;5089834;28;20364;-90
2022/06/09 04:06:35;;;;;;;0.80;0.28;;;15.30;62.60;;;;;;5089661;28;20510;-82
2022/06/09 04:09:03;;;;;;;2.22;0.60;;;15.40;61.50;;;;;;5089544;28;20863;-89
2022/06/09 04:11:32;;;;;;;0.40;0.20;;;15.30;61.30;;;;;;5089729;28;20384;-89
2022/06/09 04:14:00;;;;;;;0.60;0.30;;;15.30;62.80;;;;;;5089507;28;20932;-83
2022/06/09 04:16:33;;;;;;;0.20;0.20;;;15.30;61.60;;;;;;5089600;28;20518;-82
2022/06/09 04:19:04;;;;;;;0.90;0.22;;;15.40;61.50;;;;;;5089643;28;20748;-83
2022/06/09 04:21:34;;;;;;;0.70;0.17;;;15.40;61.60;;;;;;5071922;28;20376;-84
2022/06/09 04:24:03;;;;;;;0.30;0.25;;;15.30;60.90;;;;;;5089713;28;20857;-84
2022/06/09 04:26:33;;;;;;;0.25;0.20;;;15.30;61.60;;;;;;5089604;28;20386;-81
2022/06/09 04:29:00;;;;;;;0.10;0.10;;;15.30;61.20;;;;;;5089614;28;20440;-83
2022/06/09 04:31:27;;;;;;;0.90;0.17;;;15.30;61.90;;;;;;5089189;28;20867;-88
2022/06/09 04:33:55;;;;;;;0.40;0.13;;;15.20;61.10;;;;;;5089242;28;20937;-82
2022/06/09 04:36:22;;;;;;;0.45;0.13;;;15.00;60.60;;;;;;5089011;28;20404;-87
2022/06/09 04:38:49;;;;;;;0.40;0.20;;;15.10;61.10;;;;;;5088985;28;20447;-82
2022/06/09 04:41:17;;;;;;;0.80;0.20;;;15.20;60.90;;;;;;5089162;28;20768;-85
2022/06/09 04:43:46;;;;;;;0.20;0.20;;;15.20;60.50;;;;;;5089308;28;20376;-88
2022/06/09 04:46:17;;;;;;;0.20;0.20;;;15.30;60.80;;;;;;5089148;28;20383;-86
2022/06/09 04:48:44;;;;;;;0.20;0.13;;;15.30;60.10;;;;;;5089120;28;20434;-88
2022/06/09 04:51:13;;;;;;;0.40;0.20;;;15.40;59.70;;;;;;5089013;28;20823;-84
2022/06/09 04:53:41;;;;;;;0.20;0.20;;;15.60;59.80;;;;;;5088868;28;20789;-82
2022/06/09 04:56:09;;;;;;;0.15;0.15;;;15.90;59.20;;;;;;5088798;28;20396;-89
2022/06/09 04:58:39;;;;;;;0.15;0.10;;;15.70;59.40;;;;;;5088685;28;20368;-84
2022/06/09 05:01:13;;;;;;;0.20;0.20;;;15.50;59.70;;;;;;5089210;28;20360;-84
2022/06/09 05:03:40;;;;;;;0.13;0.13;;;15.30;60.60;;;;;;5088922;28;20368;-83
2022/06/09 05:06:07;;;;;;;0.67;0.20;;;15.20;61.40;;;;;;5088864;28;20780;-87
2022/06/09 05:08:34;;;;;;;0.30;0.20;;;15.00;61.00;;;;;;5088591;28;20372;-89
2022/06/09 05:11:01;;;;;;;0.80;0.60;;;14.90;60.90;;;;;;5088721;28;20378;-83
2022/06/09 05:13:28;;;;;;;0.20;0.20;;;14.90;61.80;;;;;;5088740;28;20860;-89
2022/06/09 05:15:57;;;;;;;0.63;0.50;;;14.90;61.60;;;;;;5070575;28;20766;-90
2022/06/09 05:18:27;;;;;;;0.90;0.30;;;14.80;62.60;;;;;;5088590;28;20478;-89
2022/06/09 05:20:58;;;;;;;1.15;0.30;;;14.70;62.80;;;;;;5088942;28;20725;-89
2022/06/09 05:23:27;;;;;;;0.50;0.20;;;14.80;62.50;;;;;;5088607;28;20391;-88
2022/06/09 05:25:56;;;;;;;0.35;0.22;;;14.70;62.80;;;;;;5088521;28;20753;-87
2022/06/09 05:28:25;;;;;;;0.20;0.20;;;14.70;62.90;;;;;;5070269;28;20373;-82
2022/06/09 05:30:52;;;;;;;0.22;0.20;;;14.70;63.60;;;;;;5088788;28;20814;-87
2022/06/09 05:33:20;;;;;;;0.20;0.20;;;14.50;63.00;;;;;;5088718;28;20383;-85
2022/06/09 05:35:47;;;;;;;6.07;4.55;;;14.50;64.00;;;;;;5088748;28;20453;-85
2022/06/09 05:46:35;;;;;;;32.53;21.20;;;14.30;65.10;;;;;;5090277;28;20391;-83
2022/06/09 05:49:03;;;;;;;7.25;4.35;;;14.30;65.10;;;;;;5089026;28;20887;-83
2022/06/09 05:51:31;;;;;;;1.17;0.90;;;14.30;65.10;;;;;;5088438;28;20371;-88
2022/06/09 05:53:59;;;;;;;0.32;0.20;;;14.40;65.60;;;;;;5088811;28;20955;-87
2022/06/09 05:56:26;;;;;;;4.75;4.25;;;14.30;65.60;;;;;;5088410;28;20678;-86
2022/06/09 05:58:54;;;;;;;12.27;8.27;;;14.20;66.10;;;;;;5088146;28;20429;-87
2022/06/09 06:01:21;;;;;;;4.20;3.80;;;14.10;66.40;;;;;;5088150;28;20376;-91
2022/06/09 06:03:48;;;;;;;4.93;2.10;;;14.00;67.00;;;;;;5088369;28;20369;-88
2022/06/09 06:06:34;;;;;;;10.37;6.13;;;13.90;67.10;;;;;;5088034;28;20388;-87
2022/06/09 06:09:11;;;;;;;24.27;14.18;;;13.80;68.10;;;;;;5088594;28;20388;-87
2022/06/09 06:11:39;;;;;;;40.33;28.17;;;13.80;68.00;;;;;;5073377;28;20384;-86
2022/06/09 06:14:08;;;;;;;6.70;6.00;;;13.70;68.20;;;;;;5092009;28;20369;-85
2022/06/09 06:16:36;;;;;;;1.50;1.40;;;13.70;69.20;;;;;;5091776;28;20425;-85
2022/06/09 06:19:05;;;;;;;3.10;2.80;;;13.60;69.10;;;;;;5073759;28;20678;-86
2022/06/09 06:21:32;;;;;;;2.05;1.50;;;13.50;69.50;;;;;;5091769;28;20380;-85
2022/06/09 06:23:59;;;;;;;1.88;1.23;;;13.40;69.50;;;;;;5091932;28;20362;-85
2022/06/09 06:26:27;;;;;;;0.80;0.80;;;13.30;70.10;;;;;;5091594;28;20372;-86
2022/06/09 06:28:54;;;;;;;1.50;1.20;;;13.30;69.70;;;;;;5091648;28;20847;-85
2022/06/09 06:31:21;;;;;;;1.65;1.05;;;13.20;70.30;;;;;;5091495;28;20393;-86
2022/06/09 06:33:48;;;;;;;0.60;0.30;;;13.10;71.00;;;;;;5091619;28;20376;-85
2022/06/09 06:36:16;;;;;;;1.73;0.30;;;13.00;71.40;;;;;;5091198;28;20404;-84
2022/06/09 06:38:43;;;;;;;1.17;0.70;;;12.90;70.70;;;;;;5091660;28;20376;-85
2022/06/09 06:41:11;;;;;;;1.00;0.50;;;12.90;71.20;;;;;;5091373;28;20380;-84
2022/06/09 06:43:39;;;;;;;2.80;0.63;;;12.80;71.40;;;;;;5091661;28;20361;-85
2022/06/09 06:46:07;;;;;;;1.30;0.40;;;12.80;71.60;;;;;;5091324;28;20387;-86
2022/06/09 06:48:35;;;;;;;7.35;6.10;;;12.70;72.50;;;;;;5091295;28;20703;-84
2022/06/09 06:51:03;;;;;;;11.82;9.77;;;12.60;72.70;;;;;;5091415;28;20380;-84
2022/06/09 06:53:30;;;;;;;13.77;9.47;;;12.50;72.70;;;;;;5091272;28;20421;-82
2022/06/09 06:55:57;;;;;;;5.55;4.50;;;12.50;72.70;;;;;;5091298;28;20992;-85
2022/06/09 06:58:24;;;;;;;21.33;15.52;;;12.50;73.00;;;;;;5090987;28;20377;-85
2022/06/09 07:00:52;;;;;;;25.90;21.00;;;12.40;73.90;;;;;;5091202;28;20410;-87
2022/06/09 07:03:19;;;;;;;21.08;18.30;;;12.30;74.20;;;;;;5090955;28;20372;-84
2022/06/09 07:05:46;;;;;;;20.33;16.40;;;12.20;74.40;;;;;;5092176;28;20376;-86
2022/06/09 07:08:16;;;;;;;9.40;6.45;;;12.10;75.40;;;;;;5094491;28;20369;-84
2022/06/09 07:10:45;;;;;;;9.57;7.97;;;12.00;75.90;;;;;;5096093;28;20383;-85
2022/06/09 07:13:12;;;;;;;2.55;1.75;;;11.90;76.50;;;;;;5094471;28;20429;-87
2022/06/09 07:15:39;;;;;;;31.30;27.90;;;11.80;77.40;;;;;;5094332;28;20396;-84
2022/06/09 07:18:09;;;;;;;2.73;1.97;;;11.70;77.70;;;;;;5094089;28;20364;-86
2022/06/09 07:20:38;;;;;;;2.67;1.27;;;11.70;77.60;;;;;;5076480;28;20383;-86
2022/06/09 07:23:05;;;;;;;2.75;0.82;;;11.80;77.70;;;;;;5093980;28;20365;-88
2022/06/09 07:25:33;;;;;;;0.80;0.60;;;11.70;77.70;;;;;;5093630;28;20377;-79
2022/06/09 07:28:00;;;;;;;3.92;3.58;;;11.70;78.20;;;;;;5093592;28;20383;-84
2022/06/09 07:30:28;;;;;;;3.17;2.83;;;11.60;78.50;;;;;;5093280;28;20399;-84
2022/06/09 07:32:56;;;;;;;1.45;0.82;;;11.50;79.30;;;;;;5094227;28;20396;-86
2022/06/09 07:35:27;;;;;;;1.30;1.17;;;11.50;79.60;;;;;;5094773;28;20413;-85
2022/06/09 07:37:55;;;;;;;10.80;9.40;;;11.40;80.00;;;;;;5094116;28;20512;-84
2022/06/09 07:40:23;;;;;;;1.40;1.30;;;11.40;80.70;;;;;;5094597;28;20373;-85
2022/06/09 07:42:50;;;;;;;0.40;0.40;;;11.30;80.70;;;;;;5094998;28;20390;-84
2022/06/09 07:45:18;;;;;;;0.60;0.60;;;11.20;81.30;;;;;;5095080;28;20373;-86
2022/06/09 07:47:47;;;;;;;2.10;2.00;;;11.10;82.20;;;;;;5094480;28;20405;-84
2022/06/09 07:50:15;;;;;;;1.20;0.65;;;11.10;83.00;;;;;;5091884;28;20368;-85
2022/06/09 07:52:43;;;;;;;1.50;0.70;;;11.00;83.50;;;;;;5072397;28;20778;-88
2022/06/09 07:55:11;;;;;;;3.67;3.10;;;11.00;84.40;;;;;;5090499;28;20483;-83
2022/06/09 07:57:38;;;;;;;4.07;3.67;;;10.90;85.10;;;;;;5090716;28;20459;-87
2022/06/09 08:00:07;;;;;;;3.05;2.72;;;10.70;86.20;;;;;;5090629;28;20381;-83
2022/06/09 08:02:35;;;;;;;2.13;1.80;;;10.50;87.10;;;;;;5090557;28;20907;-86
2022/06/09 08:05:03;;;;;;;2.85;1.60;;;10.40;89.00;;;;;;5072459;28;20387;-89
2022/06/09 08:07:30;;;;;;;1.80;1.20;;;10.20;90.00;;;;;;5090397;28;20361;-84
2022/06/09 08:09:58;;;;;;;1.20;1.10;;;10.00;90.70;;;;;;5090839;28;20376;-83
2022/06/09 08:12:25;;;;;;;1.35;1.15;;;9.90;91.30;;;;;;5090491;28;20383;-84
2022/06/09 08:14:52;;;;;;;1.58;0.90;;;9.70;92.30;;;;;;5090065;28;20384;-86
2022/06/09 08:17:19;;;;;;;1.10;1.00;;;9.60;94.20;;;;;;5090436;28;20368;-90
2022/06/09 08:19:47;;;;;;;1.80;1.20;;;9.50;95.30;;;;;;5093398;28;20368;-86
2022/06/09 08:22:16;;;;;;;2.95;2.15;;;9.60;95.80;;;;;;5090492;28;20384;-83
2022/06/09 08:24:43;;;;;;;4.72;2.00;;;9.50;96.00;;;;;;5089882;28;20397;-88
2022/06/09 08:27:10;;;;;;;3.00;1.50;;;9.40;96.30;;;;;;5071879;28;20406;-84
2022/06/09 08:29:38;;;;;;;2.28;1.83;;;9.30;97.20;;;;;;5090036;28;20402;-83
2022/06/09 08:32:06;;;;;;;4.30;2.30;;;9.20;97.50;;;;;;5089784;28;20368;-83
2022/06/09 08:34:33;;;;;;;3.88;2.85;;;9.10;98.10;;;;;;5089278;28;20388;-85
2022/06/09 08:37:00;;;;;;;3.20;1.60;;;9.10;98.50;;;;;;5090133;28;20368;-83
2022/06/09 08:39:28;;;;;;;3.17;1.87;;;9.10;99.30;;;;;;5089861;28;20758;-84
2022/06/09 08:42:16;;;;;;;6.30;4.78;;;9.10;99.00;;;;;;5089837;28;20372;-87
2022/06/09 08:44:50;;;;;;;6.32;3.25;;;9.00;99.00;;;;;;5089616;28;20867;-83
2022/06/09 08:47:26;;;;;;;5.35;3.65;;;8.90;99.50;;;;;;5089757;28;20363;-90
2022/06/09 08:50:02;;;;;;;19.43;10.57;;;8.90;99.80;;;;;;5089838;28;20781;-90
2022/06/09 08:52:44;;;;;;;5.75;4.15;;;8.70;99.90;;;;;;5089674;28;20381;-84
2022/06/09 08:55:32;;;;;;;9.03;4.20;;;8.60;99.90;;;;;;5089845;28;20400;-83
2022/06/09 08:58:23;;;;;;;5.38;2.80;;;8.40;99.90;;;;;;5089384;28;20432;-83
2022/06/09 09:01:22;;;;;;;4.25;2.25;;;8.30;99.90;;;;;;5090845;28;20415;-88
2022/06/09 09:03:56;;;;;;;6.13;5.18;;;8.30;99.90;;;;;;5089020;28;20395;-84
2022/06/09 09:06:34;;;;;;;13.38;10.18;;;8.40;99.90;;;;;;5089304;28;20371;-86
2022/06/09 09:09:17;;;;;;;8.25;5.10;;;8.60;99.90;;;;;;5089125;28;20868;-87
2022/06/09 09:11:52;;;;;;;5.88;2.90;;;8.60;99.90;;;;;;5089583;28;20374;-84
2022/06/09 09:14:37;;;;;;;7.90;6.30;;;8.40;99.90;;;;;;5090572;28;20396;-83
2022/06/09 09:17:22;;;;;;;17.95;13.23;;;8.30;99.90;;;;;;5089305;28;20862;-84
2022/06/09 09:19:58;;;;;;;14.57;7.53;;;8.10;99.90;;;;;;5089170;28;20847;-82
2022/06/09 09:22:40;;;;;;;19.55;9.48;;;8.00;99.90;;;;;;5089539;28;20387;-84
2022/06/09 09:25:10;;;;;;;13.98;5.35;;;7.90;99.90;;;;;;5089179;28;20713;-85
2022/06/09 09:27:54;;;;;;;9.20;4.00;;;8.00;99.90;;;;;;5089214;28;20368;-89
2022/06/09 09:30:36;;;;;;;9.20;4.30;;;8.00;99.90;;;;;;5088658;28;20376;-86
2022/06/09 09:33:03;;;;;;;8.13;4.45;;;7.90;99.90;;;;;;5088761;28;20451;-85
2022/06/09 09:35:40;;;;;;;11.55;6.35;;;7.90;99.90;;;;;;5088738;28;20404;-83
2022/06/09 09:38:10;;;;;;;8.35;4.68;;;7.80;99.90;;;;;;5088948;28;20422;-85
2022/06/09 09:40:44;;;;;;;6.70;4.45;;;7.80;99.90;;;;;;5089035;28;20375;-89
2022/06/09 09:43:26;;;;;;;9.03;6.40;;;7.70;99.90;;;;;;5088791;28;20452;-86
2022/06/09 09:45:57;;;;;;;9.73;6.35;;;7.70;99.90;;;;;;5090792;28;20417;-83
2022/06/09 09:48:24;;;;;;;9.82;6.43;;;7.70;99.90;;;;;;5095685;28;20391;-88
2022/06/09 09:50:59;;;;;;;6.32;5.43;;;7.70;99.90;;;;;;5076819;28;20387;-83
2022/06/09 09:53:55;;;;;;;7.25;5.13;;;7.60;99.90;;;;;;5092868;28;20377;-87
2022/06/09 09:56:22;;;;;;;12.95;10.65;;;7.50;99.90;;;;;;5083575;28;20491;-88
2022/06/09 09:58:49;;;;;;;9.15;6.93;;;7.40;99.90;;;;;;5092176;28;20410;-85
2022/06/09 10:01:25;;;;;;;9.03;6.03;;;7.30;99.90;;;;;;5092333;28;20372;-90
2022/06/09 10:09:43;;;;;;;9.00;6.43;;;7.10;99.90;;;;;;5092667;28;20382;-88
2022/06/09 10:12:18;;;;;;;7.28;6.13;;;7.10;99.90;;;;;;5092457;28;20801;-84
2022/06/09 10:18:25;;;;;;;8.68;5.53;;;7.10;99.90;;;;;;5092607;28;20375;-87
2022/06/09 10:21:10;;;;;;;7.03;5.50;;;7.10;99.90;;;;;;5092292;28;20357;-86
2022/06/09 10:24:04;;;;;;;6.82;5.97;;;7.10;99.90;;;;;;5092399;28;20506;-87
2022/06/09 10:26:40;;;;;;;7.75;6.70;;;7.20;99.90;;;;;;5092601;28;20448;-83
2022/06/09 10:29:20;;;;;;;9.27;6.50;;;7.20;99.90;;;;;;5092128;28;20360;-88
2022/06/09 10:32:00;;;;;;;7.82;5.97;;;7.10;99.90;;;;;;5091732;28;20408;-84
2022/06/09 10:34:44;;;;;;;7.23;5.37;;;7.10;99.90;;;;;;5091779;28;20951;-84
2022/06/09 10:37:15;;;;;;;6.50;4.80;;;7.10;99.90;;;;;;5092251;28;20369;-90
2022/06/09 10:40:13;;;;;;;5.55;4.40;;;7.00;99.90;;;;;;5092101;28;20392;-83
2022/06/09 10:43:08;;;;;;;4.95;4.13;;;7.00;99.90;;;;;;4990206;28;20745;-90
2022/06/09 10:45:58;;;;;;;6.70;4.10;;;7.00;99.90;;;;;;4996401;28;20372;-82
2022/06/09 10:57:54;;;;;;;6.22;4.57;;;7.10;99.90;;;;;;4990140;28;20437;-83
2022/06/09 11:00:42;;;;;;;6.30;4.10;;;7.10;99.90;;;;;;4989925;28;20385;-83
2022/06/09 11:03:19;;;;;;;5.07;4.00;;;7.10;99.90;;;;;;4990256;28;20381;-85
2022/06/09 11:05:46;;;;;;;5.88;4.32;;;7.10;99.90;;;;;;4989784;28;20373;-84
2022/06/09 11:08:52;;;;;;;6.40;4.80;;;7.10;99.90;;;;;;4990313;28;20459;-85
2022/06/09 11:11:35;;;;;;;5.40;4.82;;;7.00;99.90;;;;;;4986979;28;20793;-86
2022/06/09 11:14:07;;;;;;;5.68;4.55;;;7.00;99.90;;;;;;4990370;28;20928;-88
2022/06/09 11:17:03;;;;;;;4.90;4.13;;;7.00;99.90;;;;;;4989504;28;20907;-88
2022/06/09 11:19:43;;;;;;;4.32;3.92;;;7.00;99.90;;;;;;4968985;28;20377;-89
2022/06/09 11:22:39;;;;;;;5.15;4.03;;;7.00;99.90;;;;;;5028915;28;20461;-85
2022/06/09 11:25:30;;;;;;;4.90;4.20;;;7.00;99.90;;;;;;5028994;28;20943;-85
2022/06/09 11:28:15;;;;;;;5.15;3.90;;;7.00;99.90;;;;;;5029111;28;20377;-89
2022/06/09 11:31:16;;;;;;;4.82;3.67;;;7.10;99.90;;;;;;5029041;28;20385;-84
2022/06/09 11:33:50;;;;;;;3.83;3.40;;;7.10;99.90;;;;;;4969707;28;20386;-82
2022/06/09 11:36:56;;;;;;;5.78;4.97;;;7.10;99.90;;;;;;4969325;28;20461;-83
2022/06/09 11:39:37;;;;;;;3.83;3.35;;;7.10;99.90;;;;;;4969746;28;20530;-83
2022/06/09 11:42:23;;;;;;;3.20;2.90;;;7.00;99.90;;;;;;4969435;28;20418;-85
2022/06/09 11:44:53;;;;;;;5.60;4.10;;;7.10;99.90;;;;;;4969863;28;20411;-81
2022/06/09 11:47:26;;;;;;;7.22;5.88;;;7.00;99.90;;;;;;4969497;28;20383;-81
2022/06/09 11:49:58;;;;;;;5.85;5.25;;;6.90;99.90;;;;;;4970311;28;20907;-87
2022/06/09 11:52:49;;;;;;;7.97;7.15;;;6.90;99.90;;;;;;4969458;28;21018;-86
2022/06/09 11:58:40;;;;;;;8.33;7.40;;;6.70;99.90;;;;;;5008404;28;20378;-83
2022/06/09 12:01:16;;;;;;;8.68;7.70;;;6.70;99.90;;;;;;5007890;28;20396;-82
2022/06/09 12:04:09;;;;;;;8.70;7.53;;;6.60;99.90;;;;;;5008521;28;20696;-86
2022/06/09 12:06:56;;;;;;;9.05;8.20;;;6.50;99.90;;;;;;5009997;28;20387;-86
2022/06/09 12:09:26;;;;;;;7.63;6.90;;;6.40;99.90;;;;;;5028011;28;20521;-87
2022/06/09 12:12:03;;;;;;;7.50;6.80;;;6.30;99.90;;;;;;5091445;28;20393;-84
2022/06/09 12:14:36;;;;;;;8.23;7.33;;;6.30;99.90;;;;;;5089782;28;20380;-85
2022/06/09 12:17:13;;;;;;;8.63;7.40;;;6.20;99.90;;;;;;5089666;28;20380;-86
2022/06/09 12:20:08;;;;;;;7.85;7.05;;;6.20;99.90;;;;;;5090171;28;20400;-88
2022/06/09 12:22:40;;;;;;;7.80;6.90;;;6.10;99.90;;;;;;5089796;28;20414;-87
2022/06/09 12:25:17;;;;;;;6.60;6.00;;;6.00;99.90;;;;;;5089525;28;20368;-87
2022/06/09 12:27:49;;;;;;;6.97;5.60;;;6.00;99.90;;;;;;5090044;28;20402;-81
2022/06/09 12:30:20;;;;;;;7.63;6.70;;;5.90;99.90;;;;;;5089429;28;20740;-82
2022/06/09 12:33:11;;;;;;;6.10;5.20;;;6.00;99.90;;;;;;5089972;28;20450;-84
2022/06/09 12:35:49;;;;;;;5.50;4.90;;;6.10;99.90;;;;;;4997699;28;20410;-87
2022/06/09 12:38:29;;;;;;;5.47;4.30;;;6.10;99.90;;;;;;5007956;28;20403;-81
2022/06/09 12:41:34;;;;;;;3.90;3.40;;;6.10;99.90;;;;;;5008837;28;20458;-86
2022/06/09 12:44:25;;;;;;;4.30;3.88;;;6.10;99.90;;;;;;4933835;29;20378;-83
2022/06/09 12:46:56;;;;;;;5.20;3.60;;;6.00;99.90;;;;;;4929922;29;20408;-82
2022/06/09 12:49:32;;;;;;;4.00;3.38;;;6.00;99.90;;;;;;4930012;29;20853;-84
2022/06/09 12:52:00;;;;;;;13.43;12.07;;;5.90;99.90;;;;;;4929859;29;20474;-85
2022/06/09 12:54:37;;;;;;;9.93;8.93;;;5.80;99.90;;;;;;4929914;29;20386;-87
2022/06/09 12:57:07;;;;;;;8.40;7.60;;;5.70;99.90;;;;;;4929946;29;20900;-84
2022/06/09 12:59:38;;;;;;;11.10;10.02;;;5.60;99.90;;;;;;4930190;29;20402;-83
2022/06/09 13:02:18;;;;;;;10.32;9.32;;;5.60;99.90;;;;;;4930120;29;20386;-85
2022/06/09 13:05:24;;;;;;;10.57;9.48;;;5.50;99.90;;;;;;4929498;29;20400;-84
2022/06/09 13:08:03;;;;;;;11.68;9.85;;;5.50;99.90;;;;;;4929633;29;20393;-83
2022/06/09 13:10:34;;;;;;;9.23;8.20;;;5.50;99.90;;;;;;4929551;29;20397;-87
2022/06/09 13:13:31;;;;;;;8.63;7.72;;;5.50;99.90;;;;;;4977603;28;20450;-83
2022/06/09 13:16:05;;;;;;;6.90;6.20;;;5.40;99.90;;;;;;5006825;28;20907;-84
2022/06/09 13:18:37;;;;;;;7.63;6.60;;;5.40;99.90;;;;;;5007359;28;20760;-88
2022/06/09 13:21:20;;;;;;;7.27;6.33;;;5.40;99.90;;;;;;5064568;28;20377;-87
2022/06/09 13:23:53;;;;;;;6.95;5.90;;;5.40;99.90;;;;;;5088613;28;20376;-82
2022/06/09 13:26:31;;;;;;;7.65;5.72;;;5.30;99.90;;;;;;5087857;28;20471;-88
2022/06/09 13:29:02;;;;;;;14.73;11.65;;;5.30;99.90;;;;;;5088969;28;20888;-83
2022/06/09 13:31:36;;;;;;;26.65;22.35;;;5.30;99.90;;;;;;5088643;28;20408;-88
2022/06/09 13:34:15;;;;;;;26.48;22.63;;;5.20;99.90;;;;;;5088997;28;20372;-84
2022/06/09 13:36:57;;;;;;;24.42;20.25;;;5.20;99.90;;;;;;5088328;28;20496;-82
2022/06/09 13:39:33;;;;;;;31.45;25.92;;;5.10;99.90;;;;;;5088812;28;20467;-88
2022/06/09 13:42:17;;;;;;;20.85;16.50;;;5.10;99.90;;;;;;5089025;28;20433;-88
2022/06/09 13:45:02;;;;;;;11.88;9.82;;;5.10;99.90;;;;;;5088429;28;20452;-82
2022/06/09 13:47:36;;;;;;;9.10;7.63;;;5.10;99.90;;;;;;5088975;28;20369;-87
2022/06/09 13:50:11;;;;;;;6.80;5.93;;;5.20;99.90;;;;;;5089000;28;20369;-86